Terminal Aerodrome Forecast
Issued by NWS

Home | Current Version | Previous Version | Text Only | Print | Product List | Glossary On
Versions: 1 2 3 4 5 6 7 8 9 10 11 12 13 14 15 16 17 18 19 20 21 22 23 24 25 26 27 28 29 30 31 32 33 34 35 36 37 38 39 40 41 42 43 44 45 46 47 48 49 50
000
FTUS41 KALY 221138
TAFPSF
TAF
KPSF 221138Z 2212/2312 00000KT 1SM BR BKN004
      TEMPO 2212/2215 3SM BR SCT004 BKN050
     FM221500 04004KT 3SM BR SCT004 BKN050
      TEMPO 2215/2218 1SM BR OVC005
     FM221800 07002KT 4SM BR OVC007
     FM230600 08005KT P6SM OVC015
     FM230900 08006KT 4SM BR OVC007=

USA.gov is the U.S. government's official web portal to all federal, state and local government web resources and services.